Terminal Aerodrome Forecast
Issued by NWS

Home | Current Version | Previous Version | Text Only | Print | Product List | Glossary On
Versions: 1 2 3 4 5 6 7 8 9 10 11 12 13 14 15 16
590
FTUS46 KLOX 300534
TAFPMD
TAF
KPMD 300534Z 3006/3106 25007KT P6SM SKC
     FM301200 26015KT P6SM SKC
     FM301500 26018G28KT P6SM SCT250
     FM301800 27025G35KT P6SM SCT250
     FM302100 27038G50KT 2SM BLDU SCT250
     FM310300 29028G38KT P6SM SKC=

USA.gov is the U.S. government's official web portal to all federal, state and local government web resources and services.